sensor_id;sensor_type;location;lat;lon;timestamp;temperature;humidity
15690;DHT22;7945;48.816;11.506;2023-05-16T00:02:17;14.00;99.90
15690;DHT22;7945;48.816;11.506;2023-05-16T00:04:44;14.00;99.90
15690;DHT22;7945;48.816;11.506;2023-05-16T00:07:13;14.10;99.90
15690;DHT22;7945;48.816;11.506;2023-05-16T00:09:40;14.00;99.90
15690;DHT22;7945;48.816;11.506;2023-05-16T00:12:07;14.00;99.90
15690;DHT22;7945;48.816;11.506;2023-05-16T00:14:34;14.00;99.90
15690;DHT22;7945;48.816;11.506;2023-05-16T00:17:00;13.90;99.90
15690;DHT22;7945;48.816;11.506;2023-05-16T00:19:36;13.90;99.90
15690;DHT22;7945;48.816;11.506;2023-05-16T00:22:03;13.90;99.90
15690;DHT22;7945;48.816;11.506;2023-05-16T00:24:32;13.80;99.90
15690;DHT22;7945;48.816;11.506;2023-05-16T00:26:59;13.80;99.90
15690;DHT22;7945;48.816;11.506;2023-05-16T00:29:25;13.80;99.90
15690;DHT22;7945;48.816;11.506;2023-05-16T00:31:52;13.80;99.90
15690;DHT22;7945;48.816;11.506;2023-05-16T00:34:19;13.80;99.90
15690;DHT22;7945;48.816;11.506;2023-05-16T00:36:48;13.80;99.90
15690;DHT22;7945;48.816;11.506;2023-05-16T00:39:15;13.80;99.90
15690;DHT22;7945;48.816;11.506;2023-05-16T00:41:43;13.80;99.90
15690;DHT22;7945;48.816;11.506;2023-05-16T00:44:11;13.80;99.90
15690;DHT22;7945;48.816;11.506;2023-05-16T00:46:37;13.80;99.90
15690;DHT22;7945;48.816;11.506;2023-05-16T00:49:04;13.80;99.90
15690;DHT22;7945;48.816;11.506;2023-05-16T00:51:31;13.70;99.90
15690;DHT22;7945;48.816;11.506;2023-05-16T00:53:58;13.70;99.90
15690;DHT22;7945;48.816;11.506;2023-05-16T00:56:25;13.70;99.90
15690;DHT22;7945;48.816;11.506;2023-05-16T00:58:53;13.70;99.90
15690;DHT22;7945;48.816;11.506;2023-05-16T01:01:22;13.60;99.90
15690;DHT22;7945;48.816;11.506;2023-05-16T01:03:49;13.60;99.90
15690;DHT22;7945;48.816;11.506;2023-05-16T01:06:16;13.60;99.90
15690;DHT22;7945;48.816;11.506;2023-05-16T01:08:42;13.60;99.90
15690;DHT22;7945;48.816;11.506;2023-05-16T01:11:16;13.70;99.90
15690;DHT22;7945;48.816;11.506;2023-05-16T01:13:51;13.80;99.90
15690;DHT22;7945;48.816;11.506;2023-05-16T01:16:26;13.80;99.90
15690;DHT22;7945;48.816;11.506;2023-05-16T01:19:03;13.80;99.90
15690;DHT22;7945;48.816;11.506;2023-05-16T01:21:42;13.80;99.90
15690;DHT22;7945;48.816;11.506;2023-05-16T01:24:13;13.80;99.90
15690;DHT22;7945;48.816;11.506;2023-05-16T01:26:47;13.70;99.90
15690;DHT22;7945;48.816;11.506;2023-05-16T01:29:15;13.70;99.90
15690;DHT22;7945;48.816;11.506;2023-05-16T01:31:42;13.70;99.90
15690;DHT22;7945;48.816;11.506;2023-05-16T01:34:08;13.60;99.90
15690;DHT22;7945;48.816;11.506;2023-05-16T01:36:40;13.60;99.90
15690;DHT22;7945;48.816;11.506;2023-05-16T01:39:14;13.60;99.90
15690;DHT22;7945;48.816;11.506;2023-05-16T01:41:50;13.60;99.90
15690;DHT22;7945;48.816;11.506;2023-05-16T01:47:08;13.50;99.90
15690;DHT22;7945;48.816;11.506;2023-05-16T01:49:42;13.50;99.90
15690;DHT22;7945;48.816;11.506;2023-05-16T01:52:14;13.50;99.90
15690;DHT22;7945;48.816;11.506;2023-05-16T01:54:44;13.50;99.90
15690;DHT22;7945;48.816;11.506;2023-05-16T01:57:12;13.50;99.90
15690;DHT22;7945;48.816;11.506;2023-05-16T01:59:41;13.50;99.90
15690;DHT22;7945;48.816;11.506;2023-05-16T02:02:08;13.50;99.90
15690;DHT22;7945;48.816;11.506;2023-05-16T02:04:35;13.50;99.90
15690;DHT22;7945;48.816;11.506;2023-05-16T02:07:02;13.50;99.90
15690;DHT22;7945;48.816;11.506;2023-05-16T02:09:29;13.50;99.90
15690;DHT22;7945;48.816;11.506;2023-05-16T02:11:55;13.50;99.90
15690;DHT22;7945;48.816;11.506;2023-05-16T02:14:23;13.60;99.90
15690;DHT22;7945;48.816;11.506;2023-05-16T02:16:51;13.60;99.90
15690;DHT22;7945;48.816;11.506;2023-05-16T02:19:17;13.60;99.90
15690;DHT22;7945;48.816;11.506;2023-05-16T02:21:44;13.50;99.90
15690;DHT22;7945;48.816;11.506;2023-05-16T02:24:11;13.40;99.90
15690;DHT22;7945;48.816;11.506;2023-05-16T02:26:37;13.40;99.90
15690;DHT22;7945;48.816;11.506;2023-05-16T02:29:04;13.40;99.90
15690;DHT22;7945;48.816;11.506;2023-05-16T02:31:33;13.40;99.90
15690;DHT22;7945;48.816;11.506;2023-05-16T02:34:00;13.40;99.90
15690;DHT22;7945;48.816;11.506;2023-05-16T02:36:27;13.40;99.90
15690;DHT22;7945;48.816;11.506;2023-05-16T02:38:54;13.40;99.90
15690;DHT22;7945;48.816;11.506;2023-05-16T02:41:21;13.30;99.90
15690;DHT22;7945;48.816;11.506;2023-05-16T02:43:48;13.30;99.90
15690;DHT22;7945;48.816;11.506;2023-05-16T02:46:25;13.20;99.90
15690;DHT22;7945;48.816;11.506;2023-05-16T02:48:53;13.30;99.90
15690;DHT22;7945;48.816;11.506;2023-05-16T02:51:22;13.20;99.90
15690;DHT22;7945;48.816;11.506;2023-05-16T02:53:49;13.20;99.90
15690;DHT22;7945;48.816;11.506;2023-05-16T02:56:17;13.20;99.90
15690;DHT22;7945;48.816;11.506;2023-05-16T02:58:46;13.20;99.90
15690;DHT22;7945;48.816;11.506;2023-05-16T03:01:14;13.20;99.90
15690;DHT22;7945;48.816;11.506;2023-05-16T03:03:41;13.20;99.90
15690;DHT22;7945;48.816;11.506;2023-05-16T03:06:09;13.10;99.90
15690;DHT22;7945;48.816;11.506;2023-05-16T03:08:36;13.20;99.90
15690;DHT22;7945;48.816;11.506;2023-05-16T03:11:02;13.20;99.90
15690;DHT22;7945;48.816;11.506;2023-05-16T03:13:29;13.20;99.90
15690;DHT22;7945;48.816;11.506;2023-05-16T03:15:56;13.20;99.90
15690;DHT22;7945;48.816;11.506;2023-05-16T03:18:23;13.40;99.90
15690;DHT22;7945;48.816;11.506;2023-05-16T03:20:49;13.40;99.90
15690;DHT22;7945;48.816;11.506;2023-05-16T03:23:18;13.40;99.90
15690;DHT22;7945;48.816;11.506;2023-05-16T03:25:45;13.30;99.90
15690;DHT22;7945;48.816;11.506;2023-05-16T03:28:12;13.20;99.90
15690;DHT22;7945;48.816;11.506;2023-05-16T03:30:39;13.20;99.90
15690;DHT22;7945;48.816;11.506;2023-05-16T03:33:06;13.10;99.90
15690;DHT22;7945;48.816;11.506;2023-05-16T03:35:33;13.10;99.90
15690;DHT22;7945;48.816;11.506;2023-05-16T03:38:00;13.10;99.90
15690;DHT22;7945;48.816;11.506;2023-05-16T03:40:29;13.00;99.90
15690;DHT22;7945;48.816;11.506;2023-05-16T03:42:55;13.00;99.90
15690;DHT22;7945;48.816;11.506;2023-05-16T03:45:22;13.00;99.90
15690;DHT22;7945;48.816;11.506;2023-05-16T03:47:49;13.00;99.90
15690;DHT22;7945;48.816;11.506;2023-05-16T03:50:16;13.00;99.90
15690;DHT22;7945;48.816;11.506;2023-05-16T03:52:42;13.00;99.90
15690;DHT22;7945;48.816;11.506;2023-05-16T03:55:09;12.90;99.90
15690;DHT22;7945;48.816;11.506;2023-05-16T03:57:40;13.00;99.90
15690;DHT22;7945;48.816;11.506;2023-05-16T04:00:08;13.00;99.90
15690;DHT22;7945;48.816;11.506;2023-05-16T04:02:37;13.00;99.90
15690;DHT22;7945;48.816;11.506;2023-05-16T04:05:05;13.00;99.90
15690;DHT22;7945;48.816;11.506;2023-05-16T04:07:33;13.00;99.90
15690;DHT22;7945;48.816;11.506;2023-05-16T04:09:59;13.00;99.90
15690;DHT22;7945;48.816;11.506;2023-05-16T04:12:26;13.00;99.90
15690;DHT22;7945;48.816;11.506;2023-05-16T04:14:54;13.00;99.90
15690;DHT22;7945;48.816;11.506;2023-05-16T04:17:21;13.00;99.90
15690;DHT22;7945;48.816;11.506;2023-05-16T04:19:48;13.00;99.90
15690;DHT22;7945;48.816;11.506;2023-05-16T04:22:15;13.10;99.90
15690;DHT22;7945;48.816;11.506;2023-05-16T04:24:41;13.10;99.90
15690;DHT22;7945;48.816;11.506;2023-05-16T04:27:08;13.10;99.90
15690;DHT22;7945;48.816;11.506;2023-05-16T04:29:35;13.10;99.90
15690;DHT22;7945;48.816;11.506;2023-05-16T04:32:04;13.10;99.90
15690;DHT22;7945;48.816;11.506;2023-05-16T04:34:31;13.10;99.90
15690;DHT22;7945;48.816;11.506;2023-05-16T04:36:58;13.10;99.90
15690;DHT22;7945;48.816;11.506;2023-05-16T04:39:25;13.20;99.90
15690;DHT22;7945;48.816;11.506;2023-05-16T04:41:52;13.20;99.90
15690;DHT22;7945;48.816;11.506;2023-05-16T04:44:19;13.10;99.90
15690;DHT22;7945;48.816;11.506;2023-05-16T04:46:45;13.10;99.90
15690;DHT22;7945;48.816;11.506;2023-05-16T04:49:13;13.10;99.90
15690;DHT22;7945;48.816;11.506;2023-05-16T04:51:40;13.10;99.90
15690;DHT22;7945;48.816;11.506;2023-05-16T04:54:07;13.00;99.90
15690;DHT22;7945;48.816;11.506;2023-05-16T04:56:35;13.00;99.90
15690;DHT22;7945;48.816;11.506;2023-05-16T04:59:01;13.10;99.90
15690;DHT22;7945;48.816;11.506;2023-05-16T05:01:28;13.10;99.90
15690;DHT22;7945;48.816;11.506;2023-05-16T05:03:55;13.10;99.90
15690;DHT22;7945;48.816;11.506;2023-05-16T05:06:23;13.00;99.90
15690;DHT22;7945;48.816;11.506;2023-05-16T05:08:50;13.00;99.90
15690;DHT22;7945;48.816;11.506;2023-05-16T05:11:17;13.00;99.90
15690;DHT22;7945;48.816;11.506;2023-05-16T05:13:43;13.00;99.90
15690;DHT22;7945;48.816;11.506;2023-05-16T05:16:10;13.10;99.90
15690;DHT22;7945;48.816;11.506;2023-05-16T05:18:38;13.10;99.90
15690;DHT22;7945;48.816;11.506;2023-05-16T05:21:04;13.20;99.90
15690;DHT22;7945;48.816;11.506;2023-05-16T05:23:32;13.20;99.90
15690;DHT22;7945;48.816;11.506;2023-05-16T05:26:00;13.40;99.90
15690;DHT22;7945;48.816;11.506;2023-05-16T05:28:26;13.60;99.90
15690;DHT22;7945;48.816;11.506;2023-05-16T05:30:53;13.90;99.90
15690;DHT22;7945;48.816;11.506;2023-05-16T05:33:25;14.40;99.90
15690;DHT22;7945;48.816;11.506;2023-05-16T05:35:53;14.80;99.90
15690;DHT22;7945;48.816;11.506;2023-05-16T05:38:20;15.30;99.90
15690;DHT22;7945;48.816;11.506;2023-05-16T05:40:48;15.70;99.90
15690;DHT22;7945;48.816;11.506;2023-05-16T05:43:15;16.10;99.90
15690;DHT22;7945;48.816;11.506;2023-05-16T05:45:42;16.30;99.90
15690;DHT22;7945;48.816;11.506;2023-05-16T05:48:09;16.50;99.90
15690;DHT22;7945;48.816;11.506;2023-05-16T05:50:36;16.60;99.90
15690;DHT22;7945;48.816;11.506;2023-05-16T05:53:03;16.80;99.90
15690;DHT22;7945;48.816;11.506;2023-05-16T05:55:30;17.00;99.90
15690;DHT22;7945;48.816;11.506;2023-05-16T05:57:58;17.20;99.90
15690;DHT22;7945;48.816;11.506;2023-05-16T06:00:25;17.40;99.90
15690;DHT22;7945;48.816;11.506;2023-05-16T06:02:52;17.50;99.90
15690;DHT22;7945;48.816;11.506;2023-05-16T06:05:19;17.60;99.90
15690;DHT22;7945;48.816;11.506;2023-05-16T06:07:46;17.70;99.90
15690;DHT22;7945;48.816;11.506;2023-05-16T06:10:12;17.60;99.90
15690;DHT22;7945;48.816;11.506;2023-05-16T06:15:22;17.80;99.10
15690;DHT22;7945;48.816;11.506;2023-05-16T06:17:49;17.80;99.80
15690;DHT22;7945;48.816;11.506;2023-05-16T06:20:15;17.80;99.90
15690;DHT22;7945;48.816;11.506;2023-05-16T06:22:42;17.80;99.80
15690;DHT22;7945;48.816;11.506;2023-05-16T06:25:09;17.80;99.90
15690;DHT22;7945;48.816;11.506;2023-05-16T06:27:36;17.80;99.90
15690;DHT22;7945;48.816;11.506;2023-05-16T06:30:03;17.80;99.90
15690;DHT22;7945;48.816;11.506;2023-05-16T06:32:32;17.80;99.90
15690;DHT22;7945;48.816;11.506;2023-05-16T06:34:58;17.90;99.80
15690;DHT22;7945;48.816;11.506;2023-05-16T06:37:25;17.90;99.70
15690;DHT22;7945;48.816;11.506;2023-05-16T06:39:52;17.90;99.70
15690;DHT22;7945;48.816;11.506;2023-05-16T06:42:18;17.80;99.80
15690;DHT22;7945;48.816;11.506;2023-05-16T06:44:45;17.80;99.80
15690;DHT22;7945;48.816;11.506;2023-05-16T06:47:13;17.70;99.80
15690;DHT22;7945;48.816;11.506;2023-05-16T06:49:41;17.60;99.80
15690;DHT22;7945;48.816;11.506;2023-05-16T06:52:08;17.60;99.90
15690;DHT22;7945;48.816;11.506;2023-05-16T06:54:34;17.50;99.90
15690;DHT22;7945;48.816;11.506;2023-05-16T06:57:01;17.40;99.90
15690;DHT22;7945;48.816;11.506;2023-05-16T06:59:28;17.30;99.90
15690;DHT22;7945;48.816;11.506;2023-05-16T07:01:55;17.20;99.90
15690;DHT22;7945;48.816;11.506;2023-05-16T07:04:22;17.20;99.90
15690;DHT22;7945;48.816;11.506;2023-05-16T07:06:50;17.30;99.90
15690;DHT22;7945;48.816;11.506;2023-05-16T07:09:17;17.30;99.90
15690;DHT22;7945;48.816;11.506;2023-05-16T07:11:44;17.30;99.90
15690;DHT22;7945;48.816;11.506;2023-05-16T07:14:11;17.20;99.90
15690;DHT22;7945;48.816;11.506;2023-05-16T07:16:37;17.10;99.90
15690;DHT22;7945;48.816;11.506;2023-05-16T07:19:04;17.00;99.90
15690;DHT22;7945;48.816;11.506;2023-05-16T07:21:31;17.00;99.90
15690;DHT22;7945;48.816;11.506;2023-05-16T07:23:59;16.90;99.90
15690;DHT22;7945;48.816;11.506;2023-05-16T07:26:26;16.90;99.90
15690;DHT22;7945;48.816;11.506;2023-05-16T07:28:52;16.90;99.90
15690;DHT22;7945;48.816;11.506;2023-05-16T07:31:19;16.80;99.90
15690;DHT22;7945;48.816;11.506;2023-05-16T07:33:46;16.80;99.90
15690;DHT22;7945;48.816;11.506;2023-05-16T07:36:13;16.70;99.90
15690;DHT22;7945;48.816;11.506;2023-05-16T07:38:40;16.70;99.90
15690;DHT22;7945;48.816;11.506;2023-05-16T07:41:08;16.70;99.90
15690;DHT22;7945;48.816;11.506;2023-05-16T07:43:35;16.80;99.90
15690;DHT22;7945;48.816;11.506;2023-05-16T07:46:02;16.90;99.90
15690;DHT22;7945;48.816;11.506;2023-05-16T07:48:28;17.00;99.90
15690;DHT22;7945;48.816;11.506;2023-05-16T07:50:55;17.10;99.90
15690;DHT22;7945;48.816;11.506;2023-05-16T07:53:22;17.10;99.90
15690;DHT22;7945;48.816;11.506;2023-05-16T07:55:49;17.10;99.90
15690;DHT22;7945;48.816;11.506;2023-05-16T07:58:17;17.20;99.90
15690;DHT22;7945;48.816;11.506;2023-05-16T08:00:44;17.20;99.90
15690;DHT22;7945;48.816;11.506;2023-05-16T08:03:11;17.20;99.90
15690;DHT22;7945;48.816;11.506;2023-05-16T08:05:37;17.30;99.90
15690;DHT22;7945;48.816;11.506;2023-05-16T08:08:04;17.40;99.90
15690;DHT22;7945;48.816;11.506;2023-05-16T08:10:31;17.30;99.90
15690;DHT22;7945;48.816;11.506;2023-05-16T08:12:58;17.30;99.80
15690;DHT22;7945;48.816;11.506;2023-05-16T08:15:27;17.20;99.70
15690;DHT22;7945;48.816;11.506;2023-05-16T08:17:55;17.20;99.70
15690;DHT22;7945;48.816;11.506;2023-05-16T08:20:22;17.10;99.70
15690;DHT22;7945;48.816;11.506;2023-05-16T08:22:50;17.10;99.90
15690;DHT22;7945;48.816;11.506;2023-05-16T08:25:17;17.10;99.90
15690;DHT22;7945;48.816;11.506;2023-05-16T08:27:44;17.10;99.90
15690;DHT22;7945;48.816;11.506;2023-05-16T08:30:12;17.10;99.90
15690;DHT22;7945;48.816;11.506;2023-05-16T08:32:40;17.20;99.90
15690;DHT22;7945;48.816;11.506;2023-05-16T08:35:07;17.10;99.90
15690;DHT22;7945;48.816;11.506;2023-05-16T08:37:35;17.10;99.90
15690;DHT22;7945;48.816;11.506;2023-05-16T08:40:03;17.10;99.90
15690;DHT22;7945;48.816;11.506;2023-05-16T08:42:32;17.10;99.90
15690;DHT22;7945;48.816;11.506;2023-05-16T08:44:59;17.20;99.90
15690;DHT22;7945;48.816;11.506;2023-05-16T08:47:30;17.20;99.90
15690;DHT22;7945;48.816;11.506;2023-05-16T08:49:59;17.20;99.90
15690;DHT22;7945;48.816;11.506;2023-05-16T08:52:30;17.30;99.90
15690;DHT22;7945;48.816;11.506;2023-05-16T08:55:01;17.40;99.90
15690;DHT22;7945;48.816;11.506;2023-05-16T08:57:30;17.50;99.80
15690;DHT22;7945;48.816;11.506;2023-05-16T08:59:57;17.50;99.90
15690;DHT22;7945;48.816;11.506;2023-05-16T09:02:24;17.50;99.90
15690;DHT22;7945;48.816;11.506;2023-05-16T09:04:52;17.50;99.90
15690;DHT22;7945;48.816;11.506;2023-05-16T09:07:21;17.60;99.90
15690;DHT22;7945;48.816;11.506;2023-05-16T09:09:48;17.60;99.60
15690;DHT22;7945;48.816;11.506;2023-05-16T09:12:14;17.60;99.70
15690;DHT22;7945;48.816;11.506;2023-05-16T09:14:41;17.60;99.70
15690;DHT22;7945;48.816;11.506;2023-05-16T09:17:09;17.60;99.60
15690;DHT22;7945;48.816;11.506;2023-05-16T09:19:37;17.60;99.50
15690;DHT22;7945;48.816;11.506;2023-05-16T09:22:05;17.70;99.30
15690;DHT22;7945;48.816;11.506;2023-05-16T09:24:37;17.90;99.10
15690;DHT22;7945;48.816;11.506;2023-05-16T09:27:07;18.00;98.90
15690;DHT22;7945;48.816;11.506;2023-05-16T09:29:34;18.10;98.90
15690;DHT22;7945;48.816;11.506;2023-05-16T09:32:07;18.30;98.80
15690;DHT22;7945;48.816;11.506;2023-05-16T09:34:37;18.40;98.50
15690;DHT22;7945;48.816;11.506;2023-05-16T09:37:04;18.60;98.30
15690;DHT22;7945;48.816;11.506;2023-05-16T09:39:31;18.60;98.20
15690;DHT22;7945;48.816;11.506;2023-05-16T09:41:59;18.60;98.10
15690;DHT22;7945;48.816;11.506;2023-05-16T09:44:26;18.60;98.20
15690;DHT22;7945;48.816;11.506;2023-05-16T09:46:53;18.60;98.20
15690;DHT22;7945;48.816;11.506;2023-05-16T09:49:20;18.70;98.10
15690;DHT22;7945;48.816;11.506;2023-05-16T09:51:47;18.70;97.70
15690;DHT22;7945;48.816;11.506;2023-05-16T09:54:13;18.80;97.30
15690;DHT22;7945;48.816;11.506;2023-05-16T09:56:49;18.80;97.30
15690;DHT22;7945;48.816;11.506;2023-05-16T09:59:18;18.90;97.30
15690;DHT22;7945;48.816;11.506;2023-05-16T10:01:46;18.80;97.30
15690;DHT22;7945;48.816;11.506;2023-05-16T10:04:14;18.80;97.10
15690;DHT22;7945;48.816;11.506;2023-05-16T10:06:41;18.80;97.10
15690;DHT22;7945;48.816;11.506;2023-05-16T10:09:10;18.70;97.10
15690;DHT22;7945;48.816;11.506;2023-05-16T10:11:38;18.80;97.10
15690;DHT22;7945;48.816;11.506;2023-05-16T10:14:08;18.70;97.20
15690;DHT22;7945;48.816;11.506;2023-05-16T10:16:36;18.80;97.10
15690;DHT22;7945;48.816;11.506;2023-05-16T10:19:06;18.70;97.00
15690;DHT22;7945;48.816;11.506;2023-05-16T10:21:33;18.60;97.10
15690;DHT22;7945;48.816;11.506;2023-05-16T10:24:02;18.40;97.40
15690;DHT22;7945;48.816;11.506;2023-05-16T10:26:31;18.40;97.40
15690;DHT22;7945;48.816;11.506;2023-05-16T10:29:00;18.30;98.20
15690;DHT22;7945;48.816;11.506;2023-05-16T10:31:28;18.20;99.10
15690;DHT22;7945;48.816;11.506;2023-05-16T10:33:57;18.10;99.60
15690;DHT22;7945;48.816;11.506;2023-05-16T10:36:24;17.90;99.80
15690;DHT22;7945;48.816;11.506;2023-05-16T10:38:51;17.80;99.90
15690;DHT22;7945;48.816;11.506;2023-05-16T10:41:18;17.60;99.90
15690;DHT22;7945;48.816;11.506;2023-05-16T10:43:55;17.60;99.90
15690;DHT22;7945;48.816;11.506;2023-05-16T10:46:23;17.50;99.90
15690;DHT22;7945;48.816;11.506;2023-05-16T10:48:52;17.30;99.90
15690;DHT22;7945;48.816;11.506;2023-05-16T10:51:37;17.20;99.90
15690;DHT22;7945;48.816;11.506;2023-05-16T10:54:05;17.10;99.90
15690;DHT22;7945;48.816;11.506;2023-05-16T10:56:33;17.00;99.90
15690;DHT22;7945;48.816;11.506;2023-05-16T10:59:02;17.00;99.90
15690;DHT22;7945;48.816;11.506;2023-05-16T11:01:32;17.00;99.90
15690;DHT22;7945;48.816;11.506;2023-05-16T11:04:09;16.90;99.90
15690;DHT22;7945;48.816;11.506;2023-05-16T11:07:01;16.90;99.90
15690;DHT22;7945;48.816;11.506;2023-05-16T11:09:29;16.90;99.90
15690;DHT22;7945;48.816;11.506;2023-05-16T11:11:58;16.90;99.90
15690;DHT22;7945;48.816;11.506;2023-05-16T11:14:26;16.90;99.90
15690;DHT22;7945;48.816;11.506;2023-05-16T11:17:00;16.90;99.90
15690;DHT22;7945;48.816;11.506;2023-05-16T11:19:32;16.90;99.90
15690;DHT22;7945;48.816;11.506;2023-05-16T11:22:21;16.90;99.90
15690;DHT22;7945;48.816;11.506;2023-05-16T11:24:53;16.90;99.90
15690;DHT22;7945;48.816;11.506;2023-05-16T11:27:22;16.90;99.90
15690;DHT22;7945;48.816;11.506;2023-05-16T11:29:49;17.00;99.90
15690;DHT22;7945;48.816;11.506;2023-05-16T11:32:19;17.00;99.90
15690;DHT22;7945;48.816;11.506;2023-05-16T11:34:46;16.90;99.90
15690;DHT22;7945;48.816;11.506;2023-05-16T11:37:16;16.90;99.90
15690;DHT22;7945;48.816;11.506;2023-05-16T11:39:44;16.90;99.90
15690;DHT22;7945;48.816;11.506;2023-05-16T11:42:11;16.90;99.90
15690;DHT22;7945;48.816;11.506;2023-05-16T11:44:38;16.90;99.90
15690;DHT22;7945;48.816;11.506;2023-05-16T11:47:05;17.00;99.90
15690;DHT22;7945;48.816;11.506;2023-05-16T11:49:32;17.00;99.90
15690;DHT22;7945;48.816;11.506;2023-05-16T11:52:00;17.10;99.90
15690;DHT22;7945;48.816;11.506;2023-05-16T11:54:28;17.10;99.90
15690;DHT22;7945;48.816;11.506;2023-05-16T11:56:55;17.20;99.90
15690;DHT22;7945;48.816;11.506;2023-05-16T11:59:22;17.20;99.90
15690;DHT22;7945;48.816;11.506;2023-05-16T12:01:49;17.30;99.90
15690;DHT22;7945;48.816;11.506;2023-05-16T12:04:16;17.30;99.90
15690;DHT22;7945;48.816;11.506;2023-05-16T12:06:57;17.30;99.90
15690;DHT22;7945;48.816;11.506;2023-05-16T12:09:25;17.40;99.90
15690;DHT22;7945;48.816;11.506;2023-05-16T12:11:53;17.40;99.90
15690;DHT22;7945;48.816;11.506;2023-05-16T12:14:20;17.40;99.90
15690;DHT22;7945;48.816;11.506;2023-05-16T12:16:47;17.40;99.80
15690;DHT22;7945;48.816;11.506;2023-05-16T12:19:15;17.30;99.40
15690;DHT22;7945;48.816;11.506;2023-05-16T12:21:41;17.30;99.30
15690;DHT22;7945;48.816;11.506;2023-05-16T12:24:09;17.30;99.40
15690;DHT22;7945;48.816;11.506;2023-05-16T12:26:39;17.30;99.70
15690;DHT22;7945;48.816;11.506;2023-05-16T12:29:09;17.30;99.50
15690;DHT22;7945;48.816;11.506;2023-05-16T12:31:37;17.10;99.80
15690;DHT22;7945;48.816;11.506;2023-05-16T12:34:04;16.90;99.90
15690;DHT22;7945;48.816;11.506;2023-05-16T12:36:32;16.70;99.90
15690;DHT22;7945;48.816;11.506;2023-05-16T12:39:00;16.50;99.90
15690;DHT22;7945;48.816;11.506;2023-05-16T12:41:29;16.10;99.90
15690;DHT22;7945;48.816;11.506;2023-05-16T12:44:05;15.80;99.90
15690;DHT22;7945;48.816;11.506;2023-05-16T12:46:33;15.60;99.90
15690;DHT22;7945;48.816;11.506;2023-05-16T12:49:01;15.30;99.90
15690;DHT22;7945;48.816;11.506;2023-05-16T12:51:29;15.10;99.90
15690;DHT22;7945;48.816;11.506;2023-05-16T12:53:56;15.00;99.90
15690;DHT22;7945;48.816;11.506;2023-05-16T12:56:32;14.90;99.90
15690;DHT22;7945;48.816;11.506;2023-05-16T12:58:59;14.80;99.90
15690;DHT22;7945;48.816;11.506;2023-05-16T13:01:26;14.80;99.90
15690;DHT22;7945;48.816;11.506;2023-05-16T13:03:54;14.90;99.90
15690;DHT22;7945;48.816;11.506;2023-05-16T13:06:21;14.80;99.90
15690;DHT22;7945;48.816;11.506;2023-05-16T13:08:47;14.70;99.90
15690;DHT22;7945;48.816;11.506;2023-05-16T13:11:14;14.70;99.90
15690;DHT22;7945;48.816;11.506;2023-05-16T13:13:41;14.60;99.90
15690;DHT22;7945;48.816;11.506;2023-05-16T13:16:08;14.40;99.90
15690;DHT22;7945;48.816;11.506;2023-05-16T13:18:35;14.20;99.90
15690;DHT22;7945;48.816;11.506;2023-05-16T13:21:04;14.00;99.90
15690;DHT22;7945;48.816;11.506;2023-05-16T13:23:31;13.90;99.90
15690;DHT22;7945;48.816;11.506;2023-05-16T13:25:58;13.80;99.90
15690;DHT22;7945;48.816;11.506;2023-05-16T13:28:25;13.80;99.90
15690;DHT22;7945;48.816;11.506;2023-05-16T13:30:51;13.80;99.90
15690;DHT22;7945;48.816;11.506;2023-05-16T13:33:18;13.70;99.90
15690;DHT22;7945;48.816;11.506;2023-05-16T13:35:45;13.80;99.90
15690;DHT22;7945;48.816;11.506;2023-05-16T13:38:13;13.80;99.90
15690;DHT22;7945;48.816;11.506;2023-05-16T13:40:40;13.90;99.90
15690;DHT22;7945;48.816;11.506;2023-05-16T13:43:08;13.90;99.90
15690;DHT22;7945;48.816;11.506;2023-05-16T13:45:35;14.00;99.90
15690;DHT22;7945;48.816;11.506;2023-05-16T13:48:02;14.00;99.90
15690;DHT22;7945;48.816;11.506;2023-05-16T13:50:29;14.00;99.90
15690;DHT22;7945;48.816;11.506;2023-05-16T13:52:55;14.10;99.90
15690;DHT22;7945;48.816;11.506;2023-05-16T13:55:23;14.10;99.90
15690;DHT22;7945;48.816;11.506;2023-05-16T13:57:50;14.10;99.90
15690;DHT22;7945;48.816;11.506;2023-05-16T14:00:18;14.10;99.90
15690;DHT22;7945;48.816;11.506;2023-05-16T14:02:45;14.10;99.90
15690;DHT22;7945;48.816;11.506;2023-05-16T14:05:11;14.20;99.90
15690;DHT22;7945;48.816;11.506;2023-05-16T14:07:38;14.30;99.90
15690;DHT22;7945;48.816;11.506;2023-05-16T14:10:06;14.40;99.90
15690;DHT22;7945;48.816;11.506;2023-05-16T14:12:35;14.50;99.90
15690;DHT22;7945;48.816;11.506;2023-05-16T14:18:24;14.70;99.90
15690;DHT22;7945;48.816;11.506;2023-05-16T14:20:51;14.80;99.90
15690;DHT22;7945;48.816;11.506;2023-05-16T14:23:20;14.90;99.90
15690;DHT22;7945;48.816;11.506;2023-05-16T14:25:47;15.10;99.90
15690;DHT22;7945;48.816;11.506;2023-05-16T14:28:15;15.20;99.90
15690;DHT22;7945;48.816;11.506;2023-05-16T14:30:42;15.20;99.90
15690;DHT22;7945;48.816;11.506;2023-05-16T14:33:09;15.30;99.90
15690;DHT22;7945;48.816;11.506;2023-05-16T14:35:36;15.30;99.90
15690;DHT22;7945;48.816;11.506;2023-05-16T14:38:03;15.30;99.90
15690;DHT22;7945;48.816;11.506;2023-05-16T14:40:31;15.30;99.90
15690;DHT22;7945;48.816;11.506;2023-05-16T14:42:59;15.30;99.90
15690;DHT22;7945;48.816;11.506;2023-05-16T14:45:30;15.30;99.90
15690;DHT22;7945;48.816;11.506;2023-05-16T14:47:57;15.30;99.90
15690;DHT22;7945;48.816;11.506;2023-05-16T14:50:24;15.30;99.90
15690;DHT22;7945;48.816;11.506;2023-05-16T14:52:51;15.30;99.90
15690;DHT22;7945;48.816;11.506;2023-05-16T14:55:20;15.30;99.90
15690;DHT22;7945;48.816;11.506;2023-05-16T14:57:47;15.40;99.90
15690;DHT22;7945;48.816;11.506;2023-05-16T15:00:15;15.40;99.90
15690;DHT22;7945;48.816;11.506;2023-05-16T15:02:43;15.50;99.90
15690;DHT22;7945;48.816;11.506;2023-05-16T15:05:10;15.50;99.90
15690;DHT22;7945;48.816;11.506;2023-05-16T15:07:38;15.60;99.90
15690;DHT22;7945;48.816;11.506;2023-05-16T15:10:06;15.60;99.90
15690;DHT22;7945;48.816;11.506;2023-05-16T15:12:33;15.70;99.90
15690;DHT22;7945;48.816;11.506;2023-05-16T15:15:00;15.80;99.90
15690;DHT22;7945;48.816;11.506;2023-05-16T15:17:27;15.90;99.90
15690;DHT22;7945;48.816;11.506;2023-05-16T15:19:56;16.00;99.90
15690;DHT22;7945;48.816;11.506;2023-05-16T15:22:23;16.10;99.90
15690;DHT22;7945;48.816;11.506;2023-05-16T15:24:51;16.10;99.90
15690;DHT22;7945;48.816;11.506;2023-05-16T15:27:18;16.10;99.90
15690;DHT22;7945;48.816;11.506;2023-05-16T15:29:45;16.10;99.90
15690;DHT22;7945;48.816;11.506;2023-05-16T15:32:12;16.20;99.90
15690;DHT22;7945;48.816;11.506;2023-05-16T15:34:39;16.20;99.90
15690;DHT22;7945;48.816;11.506;2023-05-16T15:37:07;16.20;99.90
15690;DHT22;7945;48.816;11.506;2023-05-16T15:39:34;16.10;99.90
15690;DHT22;7945;48.816;11.506;2023-05-16T15:42:01;16.10;99.90
15690;DHT22;7945;48.816;11.506;2023-05-16T15:44:29;16.00;99.90